Time;durP1;ratioP1;P1;durP2;ratioP2;P2;SDS_P1;SDS_P2;PMS_P1;PMS_P2;Temp;Humidity;BMP_temperature;BMP_pressure;BME280_temperature;BME280_humidity;BME280_pressure;Samples;Min_cycle;Max_cycle;Signal;HPM_P1;HPM_P2
2022/09/11 00:02:02;;;;;;;10.55;2.95;;;;;;;15.44;100.00;100417.44;21099560;28;20405;-80
2022/09/11 00:12:04;;;;;;;6.20;2.38;;;;;;;15.51;100.00;100430.34;21084159;28;20067;-81
2022/09/11 00:22:05;;;;;;;6.90;2.60;;;;;;;15.53;100.00;100411.84;21101276;28;20044;-80
2022/09/11 00:32:06;;;;;;;7.10;2.80;;;;;;;15.44;100.00;100428.84;21105353;28;20040;-81
2022/09/11 00:42:07;;;;;;;8.68;2.83;;;;;;;15.44;100.00;100428.84;21120471;28;20048;-81
2022/09/11 00:52:09;;;;;;;7.65;2.70;;;;;;;15.45;100.00;100435.84;21121860;28;20051;-80
2022/09/11 01:02:12;;;;;;;5.88;3.00;;;;;;;15.46;100.00;100426.16;21088958;28;20059;-81
2022/09/11 01:12:14;;;;;;;8.90;3.20;;;;;;;15.43;100.00;100426.25;21086465;28;20043;-79
2022/09/11 01:22:15;;;;;;;7.80;2.95;;;;;;;15.46;100.00;100416.47;21006221;22;20114;-69
2022/09/11 01:32:17;;;;;;;7.22;2.85;;;;;;;15.46;100.00;100420.88;20991616;28;20106;-69
2022/09/11 01:42:21;;;;;;;7.50;2.80;;;;;;;15.46;100.00;100440.22;20990854;28;20057;-69
2022/09/11 01:52:23;;;;;;;9.17;3.50;;;;;;;15.39;100.00;100444.84;20990690;28;20102;-69
2022/09/11 02:02:24;;;;;;;8.25;3.10;;;;;;;15.37;100.00;100453.72;20988784;28;20056;-69
2022/09/11 02:12:25;;;;;;;13.18;3.33;;;;;;;15.38;100.00;100460.75;20989150;28;20052;-69
2022/09/11 02:22:27;;;;;;;7.65;2.97;;;;;;;15.43;100.00;100456.16;20987671;28;20080;-69
2022/09/11 02:32:28;;;;;;;11.05;3.30;;;;;;;15.37;100.00;100448.44;20986279;28;20064;-69
2022/09/11 02:42:29;;;;;;;5.65;2.90;;;;;;;15.25;100.00;100464.72;20986760;28;20106;-68
2022/09/11 02:52:31;;;;;;;8.82;2.85;;;;;;;15.13;100.00;100468.59;20985717;28;20082;-70
2022/09/11 03:02:33;;;;;;;9.25;4.00;;;;;;;15.08;100.00;100479.31;20984281;28;20052;-68
2022/09/11 03:12:35;;;;;;;7.53;3.83;;;;;;;15.17;100.00;100467.59;20984674;28;20048;-69
2022/09/11 03:22:36;;;;;;;9.93;4.00;;;;;;;15.10;100.00;100463.44;20982927;28;20072;-68
2022/09/11 03:32:38;;;;;;;8.73;4.15;;;;;;;15.14;100.00;100468.56;20982999;28;20090;-69
2022/09/11 03:42:39;;;;;;;10.25;4.40;;;;;;;15.19;100.00;100457.88;20983670;28;20052;-69
2022/09/11 03:52:42;;;;;;;12.40;5.00;;;;;;;15.31;100.00;100461.84;20983462;28;20528;-69
2022/09/11 04:02:43;;;;;;;10.40;5.25;;;;;;;15.27;100.00;100479.56;20982328;28;20056;-69
2022/09/11 04:12:44;;;;;;;7.57;4.50;;;;;;;15.26;100.00;100498.09;20994695;28;20566;-69
2022/09/11 04:22:46;;;;;;;10.02;4.65;;;;;;;15.26;100.00;100508.63;20997265;28;20083;-69
2022/09/11 04:32:49;;;;;;;6.95;4.10;;;;;;;15.26;100.00;100513.91;20995798;28;20050;-68
2022/09/11 04:42:50;;;;;;;9.80;4.07;;;;;;;15.25;100.00;100530.66;20995960;28;20051;-69
2022/09/11 04:52:51;;;;;;;8.15;4.55;;;;;;;15.21;100.00;100531.66;20995160;28;20545;-69
2022/09/11 05:02:53;;;;;;;10.05;5.00;;;;;;;15.20;100.00;100540.50;20994234;28;20516;-69
2022/09/11 05:12:55;;;;;;;7.97;4.40;;;;;;;15.24;100.00;100540.34;20993462;28;20056;-69
2022/09/11 05:22:57;;;;;;;10.88;4.80;;;;;;;15.28;100.00;100539.34;20991283;28;20118;-68
2022/09/11 05:32:58;;;;;;;9.48;4.80;;;;;;;15.27;100.00;100547.28;20992207;28;20048;-68
2022/09/11 05:43:00;;;;;;;12.30;5.18;;;;;;;15.32;100.00;100569.09;20991849;28;20044;-68
2022/09/11 05:53:01;;;;;;;12.13;5.32;;;;;;;15.47;100.00;100586.19;20990274;28;20078;-69
2022/09/11 06:03:03;;;;;;;11.98;4.82;;;;;;;15.60;100.00;100604.22;20989395;28;20064;-69
2022/09/11 06:13:04;;;;;;;7.25;4.50;;;;;;;15.75;100.00;100612.56;20988410;28;20055;-69
2022/09/11 06:23:05;;;;;;;9.70;5.85;;;;;;;15.92;100.00;100623.44;20987079;28;20079;-69
2022/09/11 06:33:09;;;;;;;7.90;4.37;;;;;;;16.13;100.00;100638.53;20986644;28;20075;-69
2022/09/11 06:43:11;;;;;;;10.15;5.30;;;;;;;16.26;100.00;100640.75;20985996;28;20048;-69
2022/09/11 06:53:13;;;;;;;10.07;5.00;;;;;;;16.35;100.00;100636.00;20985365;28;20079;-69
2022/09/11 07:03:15;;;;;;;10.23;5.03;;;;;;;16.60;100.00;100630.69;20984495;28;20110;-69
2022/09/11 07:13:16;;;;;;;10.48;5.15;;;;;;;16.65;100.00;100636.66;20984081;28;20083;-69
2022/09/11 07:23:18;;;;;;;8.40;5.30;;;;;;;17.25;100.00;100633.53;20982674;28;20057;-69
2022/09/11 07:33:19;;;;;;;10.23;5.50;;;;;;;17.31;100.00;100650.06;20984028;28;20052;-69
2022/09/11 07:43:20;;;;;;;10.40;5.75;;;;;;;17.39;100.00;100652.38;20988928;28;20080;-69
2022/09/11 07:53:22;;;;;;;7.40;5.50;;;;;;;17.68;100.00;100665.34;20999777;28;20581;-69
2022/09/11 08:03:23;;;;;;;9.02;4.90;;;;;;;17.86;100.00;100670.81;20997925;28;20064;-69
2022/09/11 08:13:24;;;;;;;8.80;5.88;;;;;;;18.25;100.00;100664.75;20997739;28;20604;-68
2022/09/11 08:23:26;;;;;;;8.48;6.07;;;;;;;18.41;100.00;100660.53;20997560;28;20051;-68
2022/09/11 08:33:27;;;;;;;8.23;5.18;;;;;;;18.50;100.00;100665.41;20994978;28;20501;-69
2022/09/11 08:43:30;;;;;;;10.65;5.75;;;;;;;18.68;100.00;100680.53;20996301;28;20048;-68
2022/09/11 08:53:32;;;;;;;9.35;5.43;;;;;;;18.62;100.00;100682.56;20993077;28;20048;-68
2022/09/11 09:03:33;;;;;;;8.93;6.10;;;;;;;18.94;100.00;100681.16;20993323;28;20056;-69
2022/09/11 09:13:34;;;;;;;11.20;5.95;;;;;;;18.80;100.00;100676.47;20992206;28;20079;-69
2022/09/11 09:23:36;;;;;;;6.82;4.88;;;;;;;19.43;100.00;100677.03;20993885;28;20267;-69
2022/09/11 09:33:37;;;;;;;9.63;6.78;;;;;;;19.77;98.47;100678.09;20990596;28;20095;-69
2022/09/11 09:43:39;;;;;;;8.20;5.47;;;;;;;20.13;98.57;100674.53;20991423;28;20052;-69
2022/09/11 09:53:40;;;;;;;9.63;5.63;;;;;;;20.28;98.85;100656.94;20990877;28;20167;-69
2022/09/11 10:03:42;;;;;;;10.63;5.70;;;;;;;20.43;97.72;100664.13;20988630;28;20084;-69
2022/09/11 10:13:44;;;;;;;9.95;6.95;;;;;;;19.77;98.64;100666.59;20995949;28;20083;-68
2022/09/11 10:23:45;;;;;;;9.25;6.07;;;;;;;19.48;100.00;100663.53;21072149;28;20072;-68
2022/09/11 10:33:47;;;;;;;9.23;5.18;;;;;;;19.85;100.00;100661.78;21070302;28;20082;-68
2022/09/11 10:43:49;;;;;;;8.02;5.40;;;;;;;20.65;92.10;100654.09;21070660;28;20458;-68
2022/09/11 10:53:50;;;;;;;8.32;5.10;;;;;;;20.57;93.58;100652.78;21069866;28;20105;-68
2022/09/11 11:03:51;;;;;;;7.88;5.80;;;;;;;20.23;93.94;100658.03;21069042;28;20047;-68
2022/09/11 11:13:53;;;;;;;7.68;4.45;;;;;;;20.58;99.95;100649.16;21068587;28;20079;-68
2022/09/11 11:23:55;;;;;;;5.93;3.95;;;;;;;20.96;97.90;100642.63;21066898;28;20055;-68
2022/09/11 11:33:56;;;;;;;5.63;3.60;;;;;;;21.38;92.18;100641.22;21066445;28;20488;-68
2022/09/11 11:43:58;;;;;;;6.90;3.90;;;;;;;21.47;90.94;100642.50;21067089;28;20119;-68
2022/09/11 11:53:59;;;;;;;5.70;4.10;;;;;;;21.09;88.60;100639.31;21066677;28;20072;-69
2022/09/11 12:04:01;;;;;;;6.85;4.35;;;;;;;20.69;88.87;100638.81;21065566;28;20048;-68
2022/09/11 12:14:02;;;;;;;7.20;4.40;;;;;;;20.49;87.76;100645.19;21066249;28;20052;-67
2022/09/11 12:24:04;;;;;;;6.07;4.30;;;;;;;20.71;88.22;100640.44;21064960;28;20464;-67
2022/09/11 12:34:06;;;;;;;5.93;4.22;;;;;;;20.97;88.41;100644.34;21074477;28;20131;-66
2022/09/11 12:44:09;;;;;;;5.13;3.38;;;;;;;21.91;83.49;100623.06;21079041;28;20082;-67
2022/09/11 12:54:11;;;;;;;5.13;3.30;;;;;;;22.33;79.70;100614.31;21077178;28;20126;-67
2022/09/11 13:04:12;;;;;;;5.38;3.00;;;;;;;22.40;75.33;100607.66;21076575;28;20069;-70
2022/09/11 13:14:13;;;;;;;5.18;2.65;;;;;;;22.63;77.85;100592.88;21076791;28;20139;-68
2022/09/11 13:24:15;;;;;;;5.03;2.92;;;;;;;22.60;77.31;100584.19;21075773;28;20093;-68
2022/09/11 13:34:16;;;;;;;8.68;3.00;;;;;;;22.22;76.62;100574.09;21073038;28;20052;-69
2022/09/11 13:44:17;;;;;;;3.78;2.65;;;;;;;22.19;80.15;100568.97;21074355;28;20052;-68
2022/09/11 13:54:19;;;;;;;4.72;3.20;;;;;;;22.14;78.12;100566.56;21073593;28;20097;-67
2022/09/11 14:04:20;;;;;;;4.05;2.60;;;;;;;22.28;75.04;100552.41;20998243;28;20048;-66
2022/09/11 14:14:21;;;;;;;4.63;2.83;;;;;;;22.07;76.12;100535.00;20988190;28;20524;-66
2022/09/11 14:24:23;;;;;;;5.18;2.75;;;;;;;21.77;79.77;100542.09;20986515;28;20421;-66
2022/09/11 14:34:24;;;;;;;4.80;2.88;;;;;;;22.10;78.35;100524.16;20985735;28;20413;-66
2022/09/11 14:44:25;;;;;;;5.38;2.75;;;;;;;22.21;73.18;100519.88;20985865;28;20057;-66
2022/09/11 14:54:29;;;;;;;5.43;2.80;;;;;;;22.42;76.71;100514.16;20985338;28;20061;-67
2022/09/11 15:04:31;;;;;;;4.97;3.22;;;;;;;22.20;81.35;100510.19;20983846;28;20131;-67
2022/09/11 15:14:32;;;;;;;5.18;2.80;;;;;;;22.29;78.48;100506.09;20984181;28;20068;-67
2022/09/11 15:24:54;;;;;;;5.18;2.55;;;;;;;22.50;74.33;100498.53;20983817;28;20143;-66
2022/09/11 15:34:56;;;;;;;8.02;4.82;;;;;;;22.80;77.28;100485.00;21011957;28;20040;-66
2022/09/11 15:44:57;;;;;;;4.25;2.75;;;;;;;22.47;76.10;100477.38;20982605;28;20080;-67
2022/09/11 15:54:58;;;;;;;6.53;3.33;;;;;;;21.95;79.67;100476.16;20981828;28;20531;-66
2022/09/11 16:05:00;;;;;;;5.50;3.20;;;;;;;21.96;80.74;100477.00;20999536;28;20068;-66
2022/09/11 16:15:01;;;;;;;4.75;3.17;;;;;;;21.70;81.05;100478.59;21062965;28;20528;-66
2022/09/11 16:25:03;;;;;;;4.82;3.15;;;;;;;21.30;84.66;100483.63;21056930;28;20484;-66
2022/09/11 16:35:04;;;;;;;6.40;3.40;;;;;;;21.17;84.34;100488.78;21057186;28;20575;-66
2022/09/11 16:45:06;;;;;;;5.20;3.40;;;;;;;21.00;86.66;100475.63;21062034;28;20040;-66
2022/09/11 16:55:08;;;;;;;6.10;3.10;;;;;;;20.93;83.54;100472.44;21063127;28;20097;-66
2022/09/11 17:05:09;;;;;;;6.72;3.00;;;;;;;20.72;85.07;100485.16;21059406;28;20109;-67
2022/09/11 17:15:11;;;;;;;6.82;3.83;;;;;;;20.35;100.00;100485.47;21058671;28;20121;-67
2022/09/11 17:25:12;;;;;;;11.15;4.35;;;;;;;20.05;100.00;100485.34;21058968;28;20139;-67
2022/09/11 17:35:13;;;;;;;7.57;4.35;;;;;;;19.71;100.00;100480.00;21059499;28;20083;-67
2022/09/11 17:45:15;;;;;;;7.88;4.40;;;;;;;19.33;100.00;100478.44;21056819;28;20094;-66
2022/09/11 17:55:16;;;;;;;8.07;4.75;;;;;;;18.96;100.00;100493.53;21058731;28;20050;-66
2022/09/11 18:05:17;;;;;;;8.55;5.15;;;;;;;18.63;100.00;100496.84;21057248;28;20105;-66
2022/09/11 18:15:19;;;;;;;9.43;5.13;;;;;;;18.27;100.00;100499.44;21055087;28;20168;-67
2022/09/11 18:25:23;;;;;;;8.30;5.72;;;;;;;18.04;100.00;100496.97;21049643;28;20285;-66
2022/09/11 18:35:25;;;;;;;10.43;5.50;;;;;;;17.87;100.00;100506.53;21052820;28;20058;-66
2022/09/11 18:45:28;;;;;;;8.80;5.25;;;;;;;17.64;100.00;100504.84;21054833;28;20385;-66
2022/09/11 18:55:29;;;;;;;10.63;5.90;;;;;;;17.50;100.00;100507.22;21054432;28;20075;-66
2022/09/11 19:05:30;;;;;;;11.20;6.53;;;;;;;17.41;100.00;100507.63;21052567;28;20102;-66
2022/09/11 19:15:32;;;;;;;11.07;6.15;;;;;;;16.96;100.00;100505.94;21051684;28;20070;-66
2022/09/11 19:25:34;;;;;;;9.77;6.20;;;;;;;16.83;100.00;100508.22;21053262;28;20040;-69
2022/09/11 19:35:35;;;;;;;11.23;7.28;;;;;;;16.75;100.00;100517.38;21051716;28;20486;-70
2022/09/11 19:45:38;;;;;;;13.02;8.48;;;;;;;16.54;100.00;100517.25;21051648;28;20040;-69
2022/09/11 19:55:39;;;;;;;11.60;6.60;;;;;;;16.49;100.00;100524.50;21051598;28;20072;-66
2022/09/11 20:05:41;;;;;;;11.10;6.30;;;;;;;16.34;100.00;100525.94;21049896;28;20055;-66
2022/09/11 20:15:42;;;;;;;10.80;6.93;;;;;;;16.11;100.00;100524.16;21050247;28;20040;-66
2022/09/11 20:25:43;;;;;;;10.48;6.88;;;;;;;15.84;100.00;100538.34;21050547;28;20076;-66
2022/09/11 20:35:45;;;;;;;12.20;8.45;;;;;;;15.79;100.00;100530.56;21049696;28;20035;-66
2022/09/11 20:45:49;;;;;;;11.30;7.75;;;;;;;15.71;100.00;100511.50;21049545;28;20568;-66
2022/09/11 20:55:50;;;;;;;15.10;8.03;;;;;;;15.32;100.00;100521.59;21063243;28;20443;-66
2022/09/11 21:05:51;;;;;;;15.65;8.57;;;;;;;15.08;100.00;100513.59;21063452;28;20040;-66
2022/09/11 21:15:53;;;;;;;12.05;8.30;;;;;;;15.07;100.00;100514.50;21061889;28;20166;-67
2022/09/11 21:25:54;;;;;;;12.05;8.05;;;;;;;14.94;100.00;100518.44;21061491;28;20526;-67
2022/09/11 21:35:56;;;;;;;14.02;8.07;;;;;;;14.70;100.00;100512.16;21060397;28;20126;-66
2022/09/11 21:45:57;;;;;;;12.07;8.32;;;;;;;14.61;100.00;100504.53;21060920;28;20151;-67
2022/09/11 21:55:58;;;;;;;10.65;7.93;;;;;;;14.65;100.00;100510.59;21059260;28;20127;-66
2022/09/11 22:05:59;;;;;;;14.73;8.52;;;;;;;14.57;100.00;100519.59;21059128;28;20076;-66
2022/09/11 22:16:01;;;;;;;12.32;8.45;;;;;;;14.49;100.00;100507.56;21059183;28;20056;-66
2022/09/11 22:26:02;;;;;;;12.75;8.57;;;;;;;14.27;100.00;100502.03;21060752;28;20472;-69
2022/09/11 22:36:04;;;;;;;12.82;9.80;;;;;;;14.20;100.00;100509.25;21059146;28;20040;-68
2022/09/11 22:46:05;;;;;;;12.82;8.48;;;;;;;14.07;100.00;100507.88;21058724;28;20534;-67
2022/09/11 22:56:07;;;;;;;14.52;8.45;;;;;;;14.04;100.00;100502.69;21057758;28;20349;-67
2022/09/11 23:16:28;;;;;;;17.27;8.80;;;;;;;13.76;100.00;100492.94;21054759;28;20089;-67
2022/09/11 23:26:29;;;;;;;16.75;9.18;;;;;;;13.58;100.00;100485.53;21055839;28;20051;-68
2022/09/11 23:36:31;;;;;;;12.00;8.75;;;;;;;13.56;100.00;100488.22;21054512;28;20511;-68
2022/09/11 23:46:32;;;;;;;16.65;8.75;;;;;;;13.46;100.00;100473.59;21054890;28;20117;-68
2022/09/11 23:56:33;;;;;;;15.15;9.55;;;;;;;13.26;100.00;100481.09;21054822;28;20121;-68
